Time;durP1;ratioP1;P1;durP2;ratioP2;P2;SDS_P1;SDS_P2;PMS_P1;PMS_P2;Temp;Humidity;BMP_temperature;BMP_pressure;BME280_temperature;BME280_humidity;BME280_pressure;Samples;Min_cycle;Max_cycle;Signal;HPM_P1;HPM_P2
2021/11/08 00:00:28;;;;;;;9.93;4.47;;;8.30;99.90;;;7.99;100.00;102150.97;4138692;28;20030;-64
2021/11/08 00:02:30;;;;;;;19.15;4.75;;;8.30;99.90;;;7.91;100.00;102145.41;4138441;28;20026;-64
2021/11/08 00:04:32;;;;;;;18.48;4.88;;;8.30;99.90;;;7.80;100.00;102151.38;4138609;28;20501;-64
2021/11/08 00:06:35;;;;;;;19.58;6.32;;;8.30;99.90;;;8.00;100.00;102144.78;4138413;28;20034;-64
2021/11/08 00:08:38;;;;;;;12.75;3.70;;;8.20;99.90;;;7.89;100.00;102155.16;4138014;28;20022;-64
2021/11/08 00:10:39;;;;;;;13.20;3.78;;;8.20;99.90;;;7.95;100.00;102139.81;4138426;28;20576;-64
2021/11/08 00:12:40;;;;;;;16.13;4.88;;;8.20;99.90;;;7.83;100.00;102151.16;4138628;28;20464;-64
2021/11/08 00:14:42;;;;;;;16.55;5.00;;;8.30;99.90;;;7.87;100.00;102136.88;4138388;28;20033;-64
2021/11/08 00:16:53;;;;;;;10.73;4.38;;;8.20;99.90;;;7.96;100.00;102164.31;4137147;28;20088;-64
2021/11/08 00:19:30;;;;;;;10.18;4.13;;;8.20;99.90;;;7.82;100.00;102158.19;4126170;28;20034;-65
2021/11/08 00:21:33;;;;;;;13.93;4.40;;;8.20;99.90;;;7.77;100.00;102148.94;4138133;28;20030;-64
2021/11/08 00:23:34;;;;;;;12.85;4.63;;;8.10;99.90;;;7.73;100.00;102150.97;4138057;28;20460;-64
2021/11/08 00:25:40;;;;;;;16.65;5.18;;;8.00;99.90;;;7.72;100.00;102151.06;4138094;28;20094;-64
2021/11/08 00:27:41;;;;;;;13.90;4.07;;;8.00;99.90;;;7.72;100.00;102151.91;4138087;28;20053;-64
2021/11/08 00:29:42;;;;;;;10.75;4.43;;;8.00;99.90;;;7.68;100.00;102146.94;4138197;28;20019;-64
2021/11/08 00:31:44;;;;;;;14.90;4.80;;;8.00;99.90;;;7.71;100.00;102154.63;4136753;28;20045;-64
2021/11/08 00:33:45;;;;;;;12.63;3.85;;;7.90;99.90;;;7.53;100.00;102150.59;4138327;28;20508;-64
2021/11/08 00:35:50;;;;;;;9.13;4.03;;;7.90;99.90;;;7.35;100.00;102143.97;4137980;28;20034;-64
2021/11/08 00:37:51;;;;;;;7.35;3.70;;;7.80;99.90;;;7.30;100.00;102146.03;4136624;28;20026;-64
2021/11/08 00:39:52;;;;;;;18.90;5.15;;;7.70;99.90;;;7.27;100.00;102146.22;4136104;28;20077;-65
2021/11/08 00:41:53;;;;;;;17.27;4.95;;;7.70;99.90;;;7.24;100.00;102139.41;4137970;28;20062;-65
2021/11/08 00:43:55;;;;;;;20.80;5.57;;;7.60;99.90;;;7.32;100.00;102152.84;4137955;28;20027;-64
2021/11/08 00:45:57;;;;;;;17.25;4.32;;;7.60;99.90;;;7.11;100.00;102130.63;4137985;28;20090;-64
2021/11/08 00:47:58;;;;;;;15.10;4.75;;;7.50;99.90;;;7.21;100.00;102142.22;4135471;28;20109;-64
2021/11/08 00:50:00;;;;;;;13.07;4.65;;;7.60;99.90;;;7.16;100.00;102142.53;4121867;28;20039;-64
2021/11/08 00:52:01;;;;;;;17.98;4.65;;;7.60;99.90;;;7.22;100.00;102143.91;4121890;28;20073;-64
2021/11/08 00:54:08;;;;;;;14.77;5.05;;;7.50;99.90;;;7.22;100.00;102138.66;4121701;28;20043;-64
2021/11/08 00:56:14;;;;;;;12.07;4.38;;;7.50;99.90;;;7.12;100.00;102142.81;4121497;28;20043;-64
2021/11/08 00:58:24;;;;;;;15.90;5.07;;;7.50;99.90;;;7.20;100.00;102130.03;4121754;28;20019;-64
2021/11/08 01:00:29;;;;;;;11.10;3.90;;;7.50;99.90;;;7.21;100.00;102142.22;4121543;28;20027;-64
2021/11/08 01:02:30;;;;;;;11.32;4.30;;;7.50;99.90;;;7.35;100.00;102130.84;4121895;28;20038;-64
2021/11/08 01:04:32;;;;;;;17.65;5.20;;;7.50;99.90;;;7.25;100.00;102130.59;4121683;28;20106;-64
2021/11/08 01:06:33;;;;;;;16.80;4.95;;;7.50;99.90;;;7.29;100.00;102133.88;4152834;28;20029;-64
2021/11/08 01:08:35;;;;;;;15.63;4.80;;;7.50;99.90;;;7.24;100.00;102131.53;4121307;28;20402;-64
2021/11/08 01:10:36;;;;;;;11.68;3.83;;;7.50;99.90;;;7.18;100.00;102129.31;4121572;28;20109;-64
2021/11/08 01:12:37;;;;;;;12.85;4.78;;;7.50;99.90;;;7.12;100.00;102133.16;4121378;28;20107;-64
2021/11/08 01:14:39;;;;;;;16.58;4.13;;;7.40;99.90;;;7.00;100.00;102128.72;4121494;28;20494;-64
2021/11/08 01:16:40;;;;;;;14.07;5.95;;;7.40;99.90;;;7.03;100.00;102138.16;4121445;28;20034;-64
2021/11/08 01:18:44;;;;;;;10.43;4.25;;;7.30;99.90;;;6.93;100.00;102132.66;4121193;28;20035;-64
2021/11/08 01:20:47;;;;;;;11.90;3.63;;;7.30;99.90;;;6.83;100.00;102134.22;4121356;28;20034;-64
2021/11/08 01:22:49;;;;;;;13.00;3.92;;;7.30;99.90;;;6.70;100.00;102125.44;4121101;28;20037;-64
2021/11/08 01:24:55;;;;;;;13.90;5.20;;;7.20;99.90;;;6.68;100.00;102122.06;4121443;28;20402;-64
2021/11/08 01:26:56;;;;;;;15.77;4.53;;;7.20;99.90;;;6.84;100.00;102122.75;4121056;28;20038;-64
2021/11/08 01:28:57;;;;;;;16.83;4.53;;;7.20;99.90;;;6.72;100.00;102128.78;4121279;28;20060;-64
2021/11/08 01:30:58;;;;;;;13.38;4.95;;;7.10;99.90;;;6.60;100.00;102137.47;4121360;28;20027;-64
2021/11/08 01:33:10;;;;;;;13.02;4.63;;;7.10;99.90;;;6.49;100.00;102132.88;4121145;28;20081;-64
2021/11/08 01:35:12;;;;;;;8.98;3.80;;;7.00;99.90;;;6.52;100.00;102132.69;4137274;28;20023;-64
2021/11/08 01:37:16;;;;;;;13.23;4.68;;;7.00;99.90;;;6.50;100.00;102126.69;4137237;28;20463;-64
2021/11/08 01:39:24;;;;;;;12.90;5.45;;;7.00;99.90;;;6.53;100.00;102125.66;4136937;28;20365;-64
2021/11/08 01:41:27;;;;;;;10.85;4.82;;;6.90;99.90;;;6.57;100.00;102124.53;4136739;28;20054;-64
2021/11/08 01:43:28;;;;;;;10.70;4.13;;;6.90;99.90;;;6.66;100.00;102130.03;4137084;28;20033;-64
2021/11/08 01:45:29;;;;;;;11.65;5.32;;;7.00;99.90;;;6.67;100.00;102131.72;4137283;28;20030;-64
2021/11/08 01:47:31;;;;;;;14.20;4.97;;;7.00;99.90;;;6.69;100.00;102134.22;4136931;28;20028;-64
2021/11/08 01:49:33;;;;;;;12.70;4.78;;;7.00;99.90;;;6.63;100.00;102124.97;4121739;28;20222;-64
2021/11/08 01:51:35;;;;;;;18.15;5.07;;;7.00;99.90;;;6.68;100.00;102119.47;4120473;28;20067;-64
2021/11/08 01:53:38;;;;;;;14.55;5.53;;;7.00;99.90;;;6.66;100.00;102122.16;4120608;28;20027;-64
2021/11/08 01:55:40;;;;;;;13.77;4.65;;;7.10;99.90;;;6.63;100.00;102119.72;4120897;28;20029;-64
2021/11/08 01:57:42;;;;;;;12.52;4.10;;;7.10;99.90;;;6.71;100.00;102111.41;4120828;28;20035;-64
2021/11/08 01:59:44;;;;;;;10.20;4.75;;;7.20;99.90;;;6.73;100.00;102113.91;4151929;28;20042;-64
2021/11/08 02:01:46;;;;;;;13.65;4.28;;;7.20;99.90;;;6.77;100.00;102115.41;4120828;28;20177;-64
2021/11/08 02:03:47;;;;;;;18.13;4.85;;;7.20;99.90;;;6.89;100.00;102109.38;4120834;28;20027;-64
2021/11/08 02:05:49;;;;;;;11.25;4.10;;;7.20;99.90;;;6.88;100.00;102112.91;4120656;28;20026;-64
2021/11/08 02:07:50;;;;;;;11.95;4.75;;;7.20;99.90;;;6.85;100.00;102107.88;4120600;28;20027;-64
2021/11/08 02:09:52;;;;;;;12.05;3.90;;;7.20;99.90;;;6.80;100.00;102099.47;4120685;28;20085;-64
2021/11/08 02:11:54;;;;;;;12.82;3.75;;;7.20;99.90;;;6.74;100.00;102102.47;4120529;28;20073;-64
2021/11/08 02:13:55;;;;;;;18.33;5.35;;;7.10;99.90;;;6.68;100.00;102090.63;4120420;28;20058;-64
2021/11/08 02:15:56;;;;;;;19.25;6.75;;;7.10;99.90;;;6.70;100.00;102104.47;4120502;28;20069;-64
2021/11/08 02:17:57;;;;;;;12.48;4.63;;;7.10;99.90;;;6.67;100.00;102105.50;4120502;28;20051;-64
2021/11/08 02:20:19;;;;;;;11.73;4.60;;;7.10;99.90;;;6.68;100.00;102104.56;4120334;28;20031;-64
2021/11/08 02:22:20;;;;;;;15.50;5.38;;;7.00;99.90;;;6.58;100.00;102100.84;4120333;28;20138;-64
2021/11/08 02:24:25;;;;;;;16.17;4.57;;;7.00;99.90;;;6.49;100.00;102090.09;4120161;28;20077;-64
2021/11/08 02:26:25;;;;;;;10.52;5.45;;;7.00;99.90;;;6.62;100.00;102102.34;4120381;28;20034;-64
2021/11/08 02:28:27;;;;;;;11.35;4.32;;;7.00;99.90;;;6.50;100.00;102107.50;4120155;28;20035;-64
2021/11/08 02:30:30;;;;;;;12.23;4.53;;;6.90;99.90;;;6.32;100.00;102085.06;4120469;28;20030;-64
2021/11/08 02:32:33;;;;;;;16.77;5.07;;;6.90;99.90;;;6.48;100.00;102109.41;4120206;28;20035;-64
2021/11/08 02:34:34;;;;;;;10.75;4.40;;;6.90;99.90;;;6.48;100.00;102125.13;4120319;28;20459;-64
2021/11/08 02:36:41;;;;;;;15.50;4.40;;;6.90;99.90;;;6.50;100.00;102116.22;4120041;28;20039;-64
2021/11/08 02:38:47;;;;;;;12.40;4.78;;;6.90;99.90;;;6.52;100.00;102119.56;4120099;28;20034;-64
2021/11/08 02:40:50;;;;;;;17.10;5.18;;;6.90;99.90;;;6.59;100.00;102109.53;4119956;28;20050;-64
2021/11/08 02:42:55;;;;;;;14.05;5.65;;;6.90;99.90;;;6.53;100.00;102107.31;4133181;28;20033;-64
2021/11/08 02:44:56;;;;;;;15.10;5.22;;;6.90;99.90;;;6.57;100.00;102108.81;4136168;28;20026;-64
2021/11/08 02:46:57;;;;;;;12.57;4.95;;;6.90;99.90;;;6.73;100.00;102109.50;4136107;28;20018;-64
2021/11/08 02:48:59;;;;;;;14.65;4.93;;;7.00;99.90;;;6.69;100.00;102113.25;4125708;28;20157;-64
2021/11/08 02:51:08;;;;;;;12.13;4.28;;;7.00;99.90;;;6.64;100.00;102110.09;4119991;28;20372;-64
2021/11/08 02:53:13;;;;;;;13.88;4.70;;;7.00;99.90;;;6.67;100.00;102095.00;4119583;28;20019;-64
2021/11/08 02:55:18;;;;;;;14.18;4.68;;;7.10;99.90;;;6.57;100.00;102107.00;4120081;28;20057;-64
2021/11/08 02:57:23;;;;;;;13.13;4.68;;;7.10;99.90;;;6.67;100.00;102099.41;4119782;28;20046;-64
2021/11/08 02:59:27;;;;;;;16.02;5.57;;;7.10;99.90;;;6.72;100.00;102104.38;4119667;28;20035;-64
2021/11/08 03:01:28;;;;;;;15.80;4.30;;;7.10;99.90;;;6.73;100.00;102113.91;4119914;28;20019;-64
2021/11/08 03:03:35;;;;;;;10.38;4.88;;;7.10;99.90;;;6.77;100.00;102099.66;4119243;28;20038;-64
2021/11/08 03:05:37;;;;;;;11.52;3.60;;;7.20;99.90;;;6.75;100.00;102091.06;4119927;28;20485;-64
2021/11/08 03:07:38;;;;;;;13.25;4.72;;;7.20;99.90;;;6.69;100.00;102105.38;4118401;28;20029;-64
2021/11/08 03:09:49;;;;;;;10.23;3.22;;;7.30;99.90;;;6.67;100.00;102102.03;4119939;28;20513;-64
2021/11/08 03:11:50;;;;;;;12.65;3.78;;;7.30;99.90;;;6.74;100.00;102111.19;4119765;28;20038;-64
2021/11/08 03:14:05;;;;;;;13.88;4.95;;;7.30;99.90;;;6.77;100.00;102104.91;4119617;28;20034;-64
2021/11/08 03:18:27;;;;;;;17.00;3.95;;;7.40;99.90;;;6.91;100.00;102097.00;4119755;28;20053;-64
2021/11/08 03:20:29;;;;;;;12.95;3.40;;;7.40;99.90;;;6.92;100.00;102104.78;4119519;28;20042;-64
2021/11/08 03:22:33;;;;;;;16.58;4.35;;;7.40;99.90;;;6.97;100.00;102110.56;4119574;28;20018;-64
2021/11/08 03:28:45;;;;;;;10.07;4.47;;;7.50;99.90;;;6.89;100.00;102107.59;4123242;28;20457;-64
2021/11/08 03:30:48;;;;;;;11.27;4.43;;;7.50;99.90;;;7.03;100.00;102107.53;4135743;28;20058;-64
2021/11/08 03:32:52;;;;;;;11.10;3.80;;;7.50;99.90;;;7.08;100.00;102101.97;4135668;28;20088;-64
2021/11/08 03:35:04;;;;;;;9.70;3.30;;;7.60;99.90;;;7.16;100.00;102100.56;4135793;28;20038;-64
2021/11/08 03:37:05;;;;;;;10.80;4.60;;;7.60;99.90;;;7.01;100.00;102098.94;4135548;28;20269;-64
2021/11/08 03:39:07;;;;;;;12.82;4.57;;;7.60;99.90;;;7.10;100.00;102102.72;4135365;28;20041;-64
2021/11/08 03:41:08;;;;;;;14.98;3.70;;;7.60;99.90;;;7.09;100.00;102107.13;4135599;28;20050;-64
2021/11/08 03:43:14;;;;;;;14.88;3.95;;;7.60;99.90;;;7.11;100.00;102104.38;4135757;28;20073;-64
2021/11/08 03:45:15;;;;;;;10.30;3.22;;;7.60;99.90;;;7.01;100.00;102105.97;4135892;28;20022;-65
2021/11/08 03:47:16;;;;;;;14.40;3.88;;;7.50;99.90;;;7.07;100.00;102102.94;4135636;28;20033;-65
2021/11/08 03:49:17;;;;;;;11.20;4.07;;;7.60;99.90;;;7.16;100.00;102102.34;4122346;28;20055;-64
2021/11/08 03:51:18;;;;;;;13.18;3.53;;;7.60;99.90;;;7.20;100.00;102114.28;4119653;28;20117;-64
2021/11/08 03:53:19;;;;;;;13.25;3.42;;;7.70;99.90;;;7.17;100.00;102124.97;4119383;28;20498;-64
2021/11/08 03:55:23;;;;;;;13.00;3.10;;;7.70;99.90;;;7.24;100.00;102115.78;4119589;28;20085;-64
2021/11/08 03:57:24;;;;;;;10.27;3.60;;;7.70;99.90;;;7.27;100.00;102114.72;4119538;28;20034;-64
2021/11/08 03:59:25;;;;;;;12.13;3.75;;;7.70;99.90;;;7.30;100.00;102104.88;4119767;28;20612;-64
2021/11/08 04:01:29;;;;;;;9.95;3.75;;;7.80;99.90;;;7.43;100.00;102111.00;4119566;28;20390;-64
2021/11/08 04:03:30;;;;;;;12.13;4.80;;;7.90;99.90;;;7.46;100.00;102110.81;4119641;28;20032;-64
2021/11/08 04:05:36;;;;;;;9.52;4.30;;;7.90;99.90;;;7.38;100.00;102107.81;4119501;28;20031;-64
2021/11/08 04:07:38;;;;;;;12.10;3.42;;;8.00;99.90;;;7.34;100.00;102103.75;4119370;28;20045;-64
2021/11/08 04:09:40;;;;;;;15.50;4.65;;;8.00;99.90;;;7.35;100.00;102105.41;4119467;28;20123;-64
2021/11/08 04:11:43;;;;;;;10.07;3.92;;;8.00;99.90;;;7.40;100.00;102102.50;4150525;28;20507;-64
2021/11/08 04:13:44;;;;;;;10.93;3.42;;;8.10;99.90;;;7.36;100.00;102086.09;4119285;28;20031;-64
2021/11/08 04:15:48;;;;;;;11.13;3.33;;;8.10;99.90;;;7.44;100.00;102080.31;4122577;28;20034;-64
2021/11/08 04:17:49;;;;;;;15.13;4.88;;;8.10;99.90;;;7.55;100.00;102098.84;4122380;28;20031;-64
2021/11/08 04:19:52;;;;;;;12.10;3.35;;;8.10;99.90;;;7.53;100.00;102095.44;4122200;28;20039;-64
2021/11/08 04:21:53;;;;;;;14.45;4.10;;;8.20;99.90;;;7.58;100.00;102094.22;4122302;28;20077;-64
2021/11/08 04:23:54;;;;;;;8.65;3.13;;;8.20;99.90;;;7.56;100.00;102072.47;4122245;28;20022;-64
2021/11/08 04:25:58;;;;;;;12.40;4.10;;;8.20;99.90;;;7.80;100.00;102086.53;4122264;28;20039;-64
2021/11/08 04:27:58;;;;;;;10.32;3.97;;;8.30;99.90;;;7.82;100.00;102097.78;4122148;28;20054;-64
2021/11/08 04:29:59;;;;;;;12.18;3.45;;;8.30;99.90;;;7.89;100.00;102098.19;4122064;28;20101;-64
2021/11/08 04:32:01;;;;;;;9.98;4.50;;;8.40;99.90;;;7.77;100.00;102084.13;4122229;28;20038;-64
2021/11/08 04:36:45;;;;;;;10.63;2.93;;;8.40;99.90;;;7.71;100.00;102087.19;4150601;28;20056;-64
2021/11/08 04:41:13;;;;;;;11.25;3.58;;;8.40;99.90;;;7.93;100.00;102090.97;4137975;28;20061;-64
2021/11/08 04:50:21;;;;;;;8.80;3.22;;;8.50;99.90;;;7.86;100.00;102087.06;4128388;28;20082;-64
2021/11/08 05:28:44;;;;;;;11.85;3.80;;;7.30;99.90;;;6.91;100.00;102099.59;4137328;28;20097;-64
2021/11/08 05:30:45;;;;;;;11.63;3.63;;;7.30;99.90;;;6.77;100.00;102105.75;4137204;28;20034;-65
2021/11/08 05:32:52;;;;;;;11.90;2.80;;;7.20;99.90;;;6.68;100.00;102115.06;4137267;28;20026;-64
2021/11/08 05:34:53;;;;;;;14.77;3.00;;;7.20;99.90;;;7.00;100.00;102118.22;4137160;28;20034;-64
2021/11/08 05:36:54;;;;;;;12.35;4.07;;;7.20;99.90;;;6.84;100.00;102101.78;4137360;28;20057;-64
2021/11/08 05:38:55;;;;;;;9.65;4.68;;;7.20;99.90;;;6.74;100.00;102098.09;4137114;28;20042;-64
2021/11/08 05:40:56;;;;;;;11.98;3.28;;;7.20;99.90;;;6.62;100.00;102097.09;4137089;28;20118;-64
2021/11/08 05:43:00;;;;;;;17.45;4.63;;;7.20;99.90;;;6.75;100.00;102106.81;4137034;28;20068;-64
2021/11/08 05:45:03;;;;;;;9.40;3.78;;;7.20;99.90;;;6.92;100.00;102122.28;4137181;28;20116;-64
2021/11/08 05:47:04;;;;;;;13.90;3.53;;;7.20;99.90;;;6.89;100.00;102125.09;4136983;28;20034;-64
2021/11/08 05:49:05;;;;;;;18.25;4.30;;;7.20;99.90;;;6.88;100.00;102113.78;4125558;28;20427;-64
2021/11/08 05:51:07;;;;;;;15.40;4.93;;;7.20;99.90;;;6.85;100.00;102118.38;4120729;28;20031;-64
2021/11/08 05:53:08;;;;;;;10.07;3.83;;;7.20;99.90;;;6.83;100.00;102120.25;4120684;28;20054;-64
2021/11/08 05:55:12;;;;;;;11.57;3.95;;;7.20;99.90;;;6.96;100.00;102118.53;4120784;28;20022;-64
2021/11/08 06:50:29;;;;;;;15.55;4.70;;;7.90;99.90;;;7.44;100.00;102138.91;4120066;28;20529;-64
2021/11/08 06:52:31;;;;;;;12.55;4.90;;;8.00;99.90;;;7.48;100.00;102144.81;4151027;28;20493;-64
2021/11/08 06:54:32;;;;;;;14.48;5.68;;;8.00;99.90;;;7.49;100.00;102157.00;4123529;28;20035;-64
2021/11/08 06:56:52;;;;;;;13.57;4.22;;;8.00;99.90;;;7.41;100.00;102149.63;4135057;28;20102;-64
2021/11/08 06:58:56;;;;;;;12.43;5.07;;;8.00;99.90;;;7.37;100.00;102156.03;4132179;28;20557;-64
2021/11/08 07:00:57;;;;;;;14.17;4.80;;;8.00;99.90;;;7.44;100.00;102164.31;4136060;28;20023;-64
2021/11/08 07:02:58;;;;;;;12.25;5.03;;;8.10;99.90;;;7.58;100.00;102157.25;4136071;28;20265;-64
2021/11/08 07:04:59;;;;;;;12.20;6.88;;;8.10;99.90;;;7.62;100.00;102163.09;4136049;28;20466;-64
2021/11/08 07:07:00;;;;;;;12.27;4.50;;;8.10;99.90;;;7.57;100.00;102159.97;4135953;28;20026;-64
2021/11/08 07:09:02;;;;;;;16.65;5.30;;;8.10;99.90;;;7.56;100.00;102153.84;4135621;28;20061;-64
2021/11/08 07:11:03;;;;;;;12.10;4.82;;;8.10;99.90;;;7.59;100.00;102158.91;4135902;28;20071;-64
2021/11/08 07:13:04;;;;;;;16.15;4.70;;;8.20;99.90;;;7.63;100.00;102160.41;4135788;28;20065;-64
2021/11/08 07:15:06;;;;;;;18.65;5.80;;;8.20;99.90;;;7.61;100.00;102146.53;4135629;28;20027;-64
2021/11/08 07:17:07;;;;;;;13.27;4.70;;;8.20;99.90;;;7.70;100.00;102155.59;4135774;28;20030;-64
2021/11/08 07:19:08;;;;;;;11.98;4.20;;;8.30;99.90;;;7.55;100.00;102157.44;4135757;28;20026;-64
2021/11/08 07:21:09;;;;;;;13.27;4.15;;;8.20;99.90;;;7.53;100.00;102143.56;4135533;28;20034;-64
2021/11/08 07:23:11;;;;;;;10.80;3.67;;;8.30;99.90;;;7.64;100.00;102154.22;4135534;28;20367;-64
2021/11/08 07:25:12;;;;;;;14.32;4.70;;;8.30;99.90;;;7.67;100.00;102161.88;4135632;28;20034;-64
2021/11/08 07:27:13;;;;;;;12.15;4.50;;;8.40;99.90;;;7.66;100.00;102162.81;4135723;28;20030;-64
2021/11/08 07:29:16;;;;;;;15.38;4.20;;;8.40;99.90;;;7.82;100.00;102169.66;4135997;28;20018;-64
2021/11/08 07:31:17;;;;;;;13.25;4.85;;;8.40;99.90;;;7.76;100.00;102150.72;4135461;28;20029;-64
2021/11/08 07:33:18;;;;;;;14.82;4.88;;;8.40;99.90;;;7.86;100.00;102161.47;4130828;28;20114;-64
2021/11/08 07:35:19;;;;;;;12.70;3.95;;;8.50;99.90;;;7.83;100.00;102153.78;4135889;28;20030;-64
2021/11/08 07:37:21;;;;;;;11.25;3.95;;;8.50;99.90;;;7.89;100.00;102157.78;4135643;28;20569;-64
2021/11/08 07:39:22;;;;;;;18.60;5.78;;;8.50;99.90;;;7.96;100.00;102164.31;4135628;28;20077;-64
2021/11/08 07:41:23;;;;;;;16.25;5.68;;;8.50;99.90;;;7.92;100.00;102161.06;4135393;28;20054;-64
2021/11/08 07:43:24;;;;;;;15.52;5.13;;;8.60;99.90;;;7.98;100.00;102168.50;4135638;28;20490;-64
2021/11/08 07:45:26;;;;;;;16.90;5.00;;;8.60;99.90;;;7.96;100.00;102159.06;4137601;28;20057;-64
2021/11/08 07:47:27;;;;;;;12.48;5.20;;;8.60;99.90;;;7.95;100.00;102160.84;4136128;28;20028;-65
2021/11/08 07:49:28;;;;;;;11.73;3.58;;;8.60;99.90;;;8.02;100.00;102164.75;4123258;28;20042;-65
2021/11/08 07:51:30;;;;;;;11.88;4.20;;;8.70;99.90;;;8.10;100.00;102174.72;4123706;28;20030;-65
2021/11/08 07:53:31;;;;;;;11.95;4.80;;;8.80;99.90;;;8.17;100.00;102176.84;4123632;28;20058;-65
2021/11/08 07:55:33;;;;;;;12.85;5.18;;;8.80;99.90;;;8.29;100.00;102176.03;4123451;28;20026;-65
2021/11/08 07:57:34;;;;;;;15.52;5.50;;;8.80;99.90;;;8.20;100.00;102176.63;4123560;28;20035;-65
2021/11/08 07:59:36;;;;;;;14.13;4.18;;;8.90;99.90;;;8.24;100.00;102161.50;4123637;28;20081;-65
2021/11/08 08:01:37;;;;;;;11.13;4.40;;;9.00;99.90;;;8.37;100.00;102166.75;4123754;28;20046;-65
2021/11/08 08:03:38;;;;;;;14.52;4.72;;;9.00;99.90;;;8.41;100.00;102169.06;4123449;28;20088;-65
2021/11/08 08:05:39;;;;;;;11.27;4.03;;;9.00;99.90;;;8.34;100.00;102165.16;4123545;28;20046;-65
2021/11/08 08:07:40;;;;;;;14.05;4.70;;;9.10;99.90;;;8.39;100.00;102168.34;4123638;28;20102;-65
2021/11/08 08:09:41;;;;;;;12.40;4.47;;;9.10;99.90;;;8.46;100.00;102166.94;4123287;28;20494;-65
2021/11/08 08:11:44;;;;;;;13.45;4.20;;;9.10;99.90;;;8.51;100.00;102172.72;4123768;28;20030;-65
2021/11/08 08:13:45;;;;;;;11.23;4.25;;;9.20;99.90;;;8.54;100.00;102184.84;4123355;28;20058;-65
2021/11/08 08:15:47;;;;;;;16.60;4.05;;;9.20;99.90;;;8.57;100.00;102174.09;4123241;28;20030;-65
2021/11/08 08:17:49;;;;;;;11.30;4.35;;;9.30;99.90;;;8.62;100.00;102182.50;4126030;28;20026;-64
2021/11/08 08:19:50;;;;;;;11.88;3.50;;;9.30;99.90;;;8.65;100.00;102172.59;4131443;28;20185;-65
2021/11/08 08:21:51;;;;;;;13.65;4.85;;;9.40;99.90;;;8.58;100.00;102170.50;4127212;28;20043;-65
2021/11/08 08:24:01;;;;;;;11.88;4.18;;;9.40;99.90;;;8.73;100.00;102183.41;4127268;28;20038;-65
2021/11/08 08:26:03;;;;;;;13.95;4.40;;;9.40;99.90;;;8.81;100.00;102177.63;4127501;28;20036;-65
2021/11/08 08:28:05;;;;;;;13.02;4.75;;;9.50;99.90;;;8.72;100.00;102173.84;4127718;28;20552;-65
2021/11/08 08:30:08;;;;;;;13.93;5.45;;;9.60;99.90;;;8.99;100.00;102180.72;4126021;28;20038;-65
2021/11/08 08:32:10;;;;;;;10.73;4.53;;;9.60;99.90;;;9.05;100.00;102178.47;4126493;28;20022;-65
2021/11/08 08:34:14;;;;;;;13.15;4.55;;;9.60;99.90;;;9.13;100.00;102185.81;4127612;28;20062;-66
2021/11/08 08:36:15;;;;;;;13.45;4.65;;;9.70;99.90;;;9.14;100.00;102184.88;4124787;28;20061;-66
2021/11/08 08:38:22;;;;;;;19.95;5.13;;;9.80;99.90;;;9.30;100.00;102188.06;4136246;28;20045;-66
2021/11/08 08:40:23;;;;;;;11.95;5.03;;;9.90;99.90;;;9.22;100.00;102177.25;4129034;28;20062;-66
2021/11/08 08:42:24;;;;;;;12.32;4.35;;;10.00;99.90;;;9.19;100.00;102183.59;4138095;28;20497;-66
2021/11/08 08:44:26;;;;;;;12.55;4.47;;;10.00;99.90;;;9.20;100.00;102189.69;4128600;28;20031;-66
2021/11/08 08:46:27;;;;;;;13.07;4.20;;;10.00;99.90;;;9.20;100.00;102179.16;4122987;28;20054;-66
2021/11/08 08:48:30;;;;;;;11.75;4.45;;;10.00;99.90;;;9.21;100.00;102183.47;4137549;28;20034;-66
2021/11/08 08:50:31;;;;;;;12.43;4.80;;;10.00;99.90;;;9.26;100.00;102178.69;4138447;28;20062;-66
2021/11/08 08:52:34;;;;;;;9.63;4.47;;;10.00;99.90;;;9.34;100.00;102189.53;4137128;28;20532;-66
2021/11/08 08:54:36;;;;;;;21.35;5.10;;;10.10;99.90;;;9.59;100.00;102192.00;4131896;28;20046;-66
2021/11/08 08:56:37;;;;;;;9.18;4.38;;;10.20;99.90;;;9.73;100.00;102197.09;4137283;28;20073;-67
2021/11/08 08:58:38;;;;;;;12.55;4.43;;;10.30;99.90;;;9.61;100.00;102203.28;4133464;28;20056;-66
2021/11/08 09:00:44;;;;;;;11.95;4.47;;;10.40;99.90;;;9.77;100.00;102195.06;4135839;28;20033;-66
2021/11/08 09:02:46;;;;;;;13.60;5.22;;;10.50;99.90;;;9.85;100.00;102197.97;4138223;28;20393;-67
2021/11/08 09:04:47;;;;;;;17.05;4.78;;;10.60;99.90;;;9.90;100.00;102201.94;4136595;28;20101;-67
2021/11/08 09:06:48;;;;;;;10.93;4.95;;;10.60;99.90;;;9.96;100.00;102195.34;4135338;28;20027;-66
2021/11/08 09:08:50;;;;;;;11.98;4.93;;;10.70;99.90;;;9.94;100.00;102198.13;4122928;28;20054;-67
2021/11/08 09:10:51;;;;;;;14.43;4.72;;;10.70;99.90;;;9.93;100.00;102203.50;4135975;28;20037;-66
2021/11/08 09:12:54;;;;;;;15.00;5.53;;;10.70;99.90;;;10.04;100.00;102203.50;4138188;28;20061;-66
2021/11/08 09:14:55;;;;;;;14.43;4.88;;;10.80;99.90;;;10.14;100.00;102198.41;4138135;28;20034;-67
2021/11/08 09:16:57;;;;;;;10.27;5.20;;;10.90;99.90;;;10.28;100.00;102199.03;4137766;28;20173;-66
2021/11/08 09:18:59;;;;;;;10.25;4.93;;;11.00;99.90;;;10.28;100.00;102190.28;4137868;28;20026;-66
2021/11/08 09:21:00;;;;;;;14.80;5.53;;;11.10;99.90;;;10.30;100.00;102196.28;4127609;28;20466;-66
2021/11/08 09:23:06;;;;;;;11.80;5.63;;;11.20;99.90;;;10.40;100.00;102194.59;4121673;28;20030;-66
2021/11/08 09:25:07;;;;;;;11.65;5.50;;;11.20;99.90;;;10.41;100.00;102199.78;4125341;28;20516;-67
2021/11/08 09:27:09;;;;;;;11.48;4.95;;;11.30;99.90;;;10.38;100.00;102196.53;4136806;28;20429;-66
2021/11/08 09:29:10;;;;;;;11.63;4.60;;;11.30;99.90;;;10.42;100.00;102190.88;4137941;28;20031;-66
2021/11/08 09:31:12;;;;;;;12.63;5.03;;;11.30;99.90;;;10.50;100.00;102190.28;4128128;28;20031;-66
2021/11/08 09:33:14;;;;;;;9.25;3.72;;;11.40;99.90;;;10.52;100.00;102193.63;4125930;28;20153;-66
2021/11/08 09:35:16;;;;;;;10.70;3.67;;;11.30;99.90;;;10.46;100.00;102176.50;4137987;28;20045;-66
2021/11/08 09:37:18;;;;;;;12.57;4.55;;;11.30;99.90;;;10.64;100.00;102197.94;4137382;28;20482;-66
2021/11/08 09:39:24;;;;;;;12.57;4.20;;;11.40;99.90;;;10.64;99.58;102197.94;4137760;28;20110;-66
2021/11/08 09:41:34;;;;;;;13.15;3.40;;;11.30;99.90;;;10.47;100.00;102190.53;4137427;28;20077;-67
2021/11/08 09:43:37;;;;;;;11.52;4.93;;;11.30;99.90;;;10.36;100.00;102178.16;4121627;28;20180;-66
2021/11/08 09:45:40;;;;;;;12.73;4.95;;;11.30;99.90;;;10.47;100.00;102195.81;4123614;28;20026;-67
2021/11/08 09:47:43;;;;;;;11.35;3.05;;;11.20;99.90;;;10.54;100.00;102197.84;4146214;28;20050;-66
2021/11/08 09:49:52;;;;;;;9.82;3.35;;;11.30;99.90;;;10.53;100.00;102190.06;4136772;28;20117;-66
2021/11/08 09:51:54;;;;;;;14.10;3.90;;;11.20;99.90;;;10.60;99.51;102195.69;4136737;28;20053;-66
2021/11/08 09:53:56;;;;;;;16.85;4.05;;;11.30;99.90;;;10.60;100.00;102191.25;4130008;28;20026;-66
2021/11/08 09:56:02;;;;;;;14.55;4.53;;;11.30;99.90;;;10.55;99.76;102193.41;4136904;28;20030;-66
2021/11/08 09:58:06;;;;;;;8.05;3.35;;;11.30;99.90;;;10.57;99.94;102181.75;4137107;28;20038;-66
2021/11/08 10:00:21;;;;;;;9.07;3.90;;;11.40;99.90;;;10.63;99.93;102180.47;4131839;28;20027;-66
2021/11/08 10:02:22;;;;;;;8.25;3.30;;;11.40;99.90;;;10.59;100.00;102178.16;4133184;28;20042;-66
2021/11/08 10:04:24;;;;;;;11.52;3.50;;;11.30;99.90;;;10.47;100.00;102175.53;4137560;28;20022;-67
2021/11/08 10:06:27;;;;;;;13.07;3.50;;;11.30;99.90;;;10.52;100.00;102178.66;4137513;28;20080;-67
2021/11/08 10:08:39;;;;;;;11.27;3.53;;;11.30;99.90;;;10.55;100.00;102177.56;4128970;28;20034;-67
2021/11/08 10:10:40;;;;;;;10.30;3.53;;;11.30;99.90;;;10.56;100.00;102173.97;4121584;28;20039;-67
2021/11/08 10:12:42;;;;;;;11.82;4.07;;;11.30;99.90;;;10.57;100.00;102176.47;4134093;28;20085;-67
2021/11/08 10:14:43;;;;;;;12.88;3.53;;;11.30;99.90;;;10.66;100.00;102179.38;4128442;28;20041;-67
2021/11/08 10:16:47;;;;;;;8.27;3.83;;;11.30;99.90;;;10.66;100.00;102174.94;4136539;28;20061;-67